Time;durP1;ratioP1;P1;durP2;ratioP2;P2;SDS_P1;SDS_P2;PMS_P1;PMS_P2;Temp;Humidity;BMP_temperature;BMP_pressure;BME280_temperature;BME280_humidity;BME280_pressure;Samples;Min_cycle;Max_cycle;Signal;HPM_P1;HPM_P2
2022/12/08 00:02:08;;;;;;;;;20.00;20.00;;;;;8.70;45.69;98253.88;6290048;27;96595;-68
2022/12/08 00:11:58;;;;;;;;;17.00;16.00;;;;;8.83;45.76;98265.53;6287810;27;97008;-68
2022/12/08 00:15:01;;;;;;;;;17.60;16.20;;;;;8.83;45.53;98261.00;6290836;27;96202;-68
2022/12/08 00:18:05;;;;;;;;;11.80;11.80;;;;;8.70;45.74;98256.56;6285057;27;96866;-68
2022/12/08 00:21:10;;;;;;;;;21.25;20.25;;;;;8.80;45.87;98255.22;6286176;27;96688;-68
2022/12/08 00:24:13;;;;;;;;;15.25;15.25;;;;;8.82;45.64;98253.97;6289505;27;96581;-69
2022/12/08 00:27:17;;;;;;;;;16.00;16.00;;;;;8.74;45.47;98262.34;6289887;27;96309;-69
2022/12/08 00:30:20;;;;;;;;;9.50;8.50;;;;;8.78;45.27;98257.34;6272448;27;96844;-68
2022/12/08 00:33:24;;;;;;;;;11.00;10.75;;;;;8.68;45.36;98272.13;6289490;27;96650;-69
2022/12/08 00:36:30;;;;;;;;;9.00;9.00;;;;;8.72;45.51;98264.41;6289580;27;96328;-69
2022/12/08 00:39:33;;;;;;;;;9.25;9.25;;;;;8.73;45.49;98276.00;6306314;27;96312;-69
2022/12/08 00:42:37;;;;;;;;;14.20;14.20;;;;;8.70;45.61;98275.38;6289654;27;96683;-69
2022/12/08 00:45:40;;;;;;;;;11.00;11.00;;;;;8.58;45.61;98271.81;6289077;27;96491;-68
2022/12/08 00:48:44;;;;;;;;;11.00;8.50;;;;;8.66;45.68;98270.69;6289160;27;96341;-70
2022/12/08 00:51:49;;;;;;;;;7.60;7.00;;;;;8.73;45.98;98268.75;6289544;27;97096;-69
2022/12/08 00:54:52;;;;;;;;;8.00;8.00;;;;;8.78;45.68;98271.59;6289177;27;96661;-69
2022/12/08 00:57:56;;;;;;;;;7.80;7.80;;;;;8.70;45.30;98266.50;6289282;27;96297;-68
2022/12/08 01:01:00;;;;;;;;;9.00;8.80;;;;;8.67;45.75;98277.72;6289421;27;96442;-68
2022/12/08 01:04:04;;;;;;;;;9.00;8.00;;;;;8.62;45.54;98259.56;6293628;27;96509;-69
2022/12/08 01:07:10;;;;;;;;;8.00;7.00;;;;;8.77;45.55;98278.00;6287719;27;98108;-68
2022/12/08 01:10:13;;;;;;;;;7.80;7.00;;;;;8.83;45.64;98282.50;6279832;27;96236;-68
2022/12/08 01:13:17;;;;;;;;;9.00;8.00;;;;;8.72;45.51;98288.59;6288372;27;96608;-68
2022/12/08 01:16:21;;;;;;;;;7.60;7.60;;;;;8.68;45.61;98288.25;6288564;27;96568;-68
2022/12/08 01:19:25;;;;;;;;;7.50;7.00;;;;;8.68;45.75;98290.09;6285589;27;96513;-68
2022/12/08 01:22:30;;;;;;;;;9.20;9.00;;;;;8.59;45.99;98283.38;6286951;27;96990;-68
2022/12/08 01:25:34;;;;;;;;;10.00;9.00;;;;;8.63;45.90;98288.09;6305379;27;96505;-69
2022/12/08 01:28:38;;;;;;;;;10.00;10.00;;;;;8.71;45.90;98292.34;6288379;27;96701;-68
2022/12/08 01:31:42;;;;;;;;;10.40;10.40;;;;;8.62;45.76;98285.63;6288360;27;96536;-68
2022/12/08 01:34:45;;;;;;;;;8.40;8.40;;;;;8.64;46.06;98281.69;6287010;27;96343;-68
2022/12/08 01:37:51;;;;;;;;;8.60;8.60;;;;;8.61;46.17;98282.09;6288265;27;96288;-68
2022/12/08 01:40:54;;;;;;;;;8.00;8.00;;;;;8.59;46.20;98281.53;6288811;27;96580;-68
2022/12/08 01:44:00;;;;;;;;;11.00;10.60;;;;;8.52;46.25;98280.75;6288140;27;96955;-68
2022/12/08 01:47:04;;;;;;;;;9.00;9.00;;;;;8.48;46.41;98276.88;6289522;27;96502;-68
2022/12/08 01:50:11;;;;;;;;;10.60;10.00;;;;;8.43;46.67;98284.78;6289040;27;96847;-68
2022/12/08 01:53:20;;;;;;;;;11.00;10.20;;;;;8.46;46.60;98296.94;6289617;27;96326;-69
2022/12/08 01:56:32;;;;;;;;;12.80;12.20;;;;;8.36;46.63;98281.34;6289859;27;96300;-68
2022/12/08 01:59:41;;;;;;;;;7.00;7.00;;;;;8.36;46.79;98288.56;6289646;27;96352;-69
2022/12/08 02:02:52;;;;;;;;;18.00;18.00;;;;;8.21;46.93;98284.34;6270653;27;96745;-68
2022/12/08 02:05:58;;;;;;;;;11.00;11.00;;;;;8.10;47.19;98268.16;6287553;27;96920;-68
2022/12/08 02:09:05;;;;;;;;;10.00;9.40;;;;;8.20;47.12;98290.78;6289516;27;96255;-67
2022/12/08 02:12:10;;;;;;;;;11.00;10.50;;;;;8.07;47.23;98290.06;6288973;27;96184;-68
2022/12/08 02:15:14;;;;;;;;;9.00;8.00;;;;;8.02;47.28;98292.56;6289081;27;96561;-68
2022/12/08 02:18:37;;;;;;;;;7.25;7.00;;;;;8.07;47.40;98290.88;6289124;27;96629;-68
2022/12/08 02:21:47;;;;;;;;;8.40;7.40;;;;;8.07;47.45;98292.75;6275087;27;96793;-68
2022/12/08 02:25:01;;;;;;;;;16.20;15.40;;;;;7.97;47.83;98290.56;6286741;27;97090;-66
2022/12/08 02:28:28;;;;;;;;;13.20;12.40;;;;;7.93;47.66;98285.84;6288663;27;96336;-68
2022/12/08 02:31:40;;;;;;;;;11.00;9.60;;;;;8.00;47.66;98292.00;6289209;27;96503;-68
2022/12/08 02:34:50;;;;;;;;;8.40;8.40;;;;;8.02;47.63;98292.56;6289145;27;96877;-68
2022/12/08 02:38:03;;;;;;;;;6.40;6.00;;;;;7.99;47.74;98287.66;6288956;27;96164;-68
2022/12/08 02:41:20;;;;;;;;;11.00;11.00;;;;;8.05;47.33;98292.97;6288689;27;97596;-68
2022/12/08 02:44:29;;;;;;;;;10.00;9.00;;;;;8.06;47.64;98297.28;6286329;27;97289;-68
2022/12/08 02:47:34;;;;;;;;;11.00;10.00;;;;;8.10;47.46;98293.16;6288105;27;96156;-68
2022/12/08 02:50:39;;;;;;;;;13.00;13.00;;;;;8.12;47.76;98301.78;6288472;27;96108;-67
2022/12/08 02:53:44;;;;;;;;;21.00;20.25;;;;;7.97;47.77;98287.03;6290331;27;96750;-67
2022/12/08 02:57:08;;;;;;;;;13.00;12.80;;;;;8.06;47.78;98299.97;6288052;27;96715;-67
2022/12/08 03:00:16;;;;;;;;;15.20;14.60;;;;;8.11;47.64;98308.19;6288426;27;96194;-68
2022/12/08 03:03:31;;;;;;;;;15.00;13.00;;;;;8.11;47.69;98308.19;6288825;27;96328;-68
2022/12/08 03:06:47;;;;;;;;;17.40;17.00;;;;;8.15;47.46;98296.00;6288681;27;96786;-68
2022/12/08 03:09:59;;;;;;;;;14.40;12.40;;;;;8.21;47.38;98303.13;6291191;27;96745;-67
2022/12/08 03:13:09;;;;;;;;;10.00;10.00;;;;;8.22;47.53;98298.59;6270026;27;97599;-68
2022/12/08 03:16:16;;;;;;;;;7.00;6.00;;;;;8.28;47.27;98300.41;6288180;27;96226;-68
2022/12/08 03:19:23;;;;;;;;;9.00;8.00;;;;;8.31;47.38;98293.81;6287867;27;96556;-68
2022/12/08 03:22:29;;;;;;;;;13.33;12.33;;;;;8.35;47.34;98293.16;6288026;27;96388;-68
2022/12/08 03:25:38;;;;;;;;;13.60;13.60;;;;;8.41;47.31;98286.03;6286502;27;98791;-68
2022/12/08 03:28:42;;;;;;;;;12.50;11.50;;;;;8.40;47.41;98282.56;6286799;27;96788;-68
2022/12/08 03:31:52;;;;;;;;;18.00;17.00;;;;;8.44;47.29;98293.69;6286041;27;96345;-67
2022/12/08 03:34:57;;;;;;;;;17.00;16.00;;;;;8.44;47.17;98281.06;6282682;27;96152;-68
2022/12/08 03:38:07;;;;;;;;;19.00;18.20;;;;;8.49;47.28;98283.91;6286656;27;96404;-68
2022/12/08 03:41:18;;;;;;;;;12.40;11.40;;;;;8.49;46.92;98281.22;6286901;27;96784;-68
2022/12/08 03:44:21;;;;;;;;;12.00;12.00;;;;;8.50;47.35;98285.53;6269687;27;96984;-67
2022/12/08 03:47:25;;;;;;;;;15.00;15.00;;;;;8.41;47.38;98283.34;6292897;27;96761;-68
2022/12/08 03:50:28;;;;;;;;;8.40;8.40;;;;;8.41;47.27;98281.50;6292334;27;96566;-68
2022/12/08 03:53:33;;;;;;;;;14.40;14.40;;;;;8.40;47.42;98271.81;6270623;27;96327;-68
2022/12/08 03:56:38;;;;;;;;;9.00;8.00;;;;;8.42;47.30;98280.47;6286516;27;96249;-68
2022/12/08 03:59:41;;;;;;;;;13.00;12.20;;;;;8.46;47.22;98280.81;6287016;27;96359;-68
2022/12/08 04:02:45;;;;;;;;;13.00;12.00;;;;;8.42;47.28;98280.47;6284184;27;96692;-68
2022/12/08 04:05:48;;;;;;;;;12.00;11.00;;;;;8.44;47.37;98282.94;6284906;27;96548;-67
2022/12/08 04:08:53;;;;;;;;;12.00;10.00;;;;;8.48;47.09;98290.31;6285811;27;96652;-67
2022/12/08 04:11:56;;;;;;;;;10.00;9.00;;;;;8.47;47.04;98285.97;6282776;27;96709;-67
2022/12/08 04:15:00;;;;;;;;;10.40;9.40;;;;;8.47;47.08;98274.41;6283062;27;96582;-68
2022/12/08 04:18:04;;;;;;;;;15.00;14.40;;;;;8.53;46.68;98271.66;6282685;27;96357;-68
2022/12/08 04:21:07;;;;;;;;;11.00;10.80;;;;;8.56;46.95;98273.06;6285505;27;96529;-67
2022/12/08 04:24:13;;;;;;;;;7.50;7.50;;;;;8.57;46.85;98280.09;6268415;27;98383;-68
2022/12/08 04:27:16;;;;;;;;;9.00;9.00;;;;;8.56;46.98;98284.63;6284536;27;97242;-68
2022/12/08 04:30:22;;;;;;;;;17.60;16.60;;;;;8.49;46.83;98277.72;6280410;27;97830;-68
2022/12/08 04:33:25;;;;;;;;;15.60;15.60;;;;;8.51;47.01;98279.13;6274202;27;97143;-68
2022/12/08 04:36:28;;;;;;;;;15.00;15.00;;;;;8.47;46.89;98274.41;6265828;27;96891;-68
2022/12/08 04:39:33;;;;;;;;;11.00;10.00;;;;;8.45;46.71;98277.34;6268250;27;96968;-68
2022/12/08 04:42:37;;;;;;;;;13.40;12.00;;;;;8.30;46.67;98257.25;6261292;27;96802;-67
2022/12/08 04:45:41;;;;;;;;;17.60;17.40;;;;;8.38;46.97;98270.38;6284428;27;96645;-67
2022/12/08 04:48:45;;;;;;;;;14.40;13.40;;;;;8.39;47.07;98277.41;6288153;27;96822;-68
2022/12/08 04:51:48;;;;;;;;;14.50;14.50;;;;;8.39;46.97;98269.34;6288662;27;96811;-67
2022/12/08 04:54:53;;;;;;;;;9.00;8.00;;;;;8.36;47.09;98261.72;6290056;27;96481;-67
2022/12/08 04:57:56;;;;;;;;;18.00;17.00;;;;;8.37;47.18;98264.19;6281619;27;97049;-67
2022/12/08 05:00:59;;;;;;;;;17.60;16.60;;;;;8.34;46.95;98267.34;6292250;27;96954;-67
2022/12/08 05:04:03;;;;;;;;;9.00;8.60;;;;;8.36;47.18;98270.59;6307138;27;96278;-68
2022/12/08 05:07:07;;;;;;;;;13.00;12.00;;;;;8.36;46.83;98269.78;6293570;27;96354;-68
2022/12/08 05:10:11;;;;;;;;;16.00;15.00;;;;;8.30;46.96;98263.44;6288618;27;96603;-67
2022/12/08 05:13:15;;;;;;;;;13.00;13.00;;;;;8.37;47.02;98269.56;6286989;27;96514;-68
2022/12/08 05:16:18;;;;;;;;;17.00;16.80;;;;;8.28;47.08;98260.94;6289977;27;96067;-68
2022/12/08 05:19:22;;;;;;;;;12.20;12.20;;;;;8.29;46.92;98256.41;6287080;27;98416;-68
2022/12/08 05:22:25;;;;;;;;;10.50;9.75;;;;;8.32;46.91;98258.66;6286171;27;97139;-68
2022/12/08 05:25:30;;;;;;;;;18.00;17.00;;;;;8.31;47.00;98259.69;6288741;27;96679;-68
2022/12/08 05:28:33;;;;;;;;;10.00;9.00;;;;;8.21;46.84;98262.03;6303927;27;96256;-67
2022/12/08 05:31:45;;;;;;;;;10.00;9.20;;;;;8.31;46.98;98262.38;6288125;27;97258;-67
2022/12/08 05:34:49;;;;;;;;;8.33;7.33;;;;;8.31;46.80;98265.06;6290164;27;97106;-67
2022/12/08 05:37:53;;;;;;;;;10.60;10.60;;;;;8.25;46.78;98263.25;6289544;27;96248;-68
2022/12/08 05:40:58;;;;;;;;;10.00;9.60;;;;;8.31;46.88;98259.69;6286123;27;96377;-67
2022/12/08 05:44:01;;;;;;;;;9.00;9.00;;;;;8.31;46.89;98265.06;6284146;27;96945;-66
2022/12/08 05:47:04;;;;;;;;;9.00;8.00;;;;;8.36;46.77;98259.03;6288187;27;96438;-67
2022/12/08 05:50:08;;;;;;;;;12.40;11.40;;;;;8.31;46.83;98265.06;6289863;27;96311;-67
2022/12/08 05:53:12;;;;;;;;;8.67;8.67;;;;;8.30;46.77;98263.44;6273376;27;96485;-68
2022/12/08 05:56:18;;;;;;;;;12.40;12.00;;;;;8.27;46.86;98261.16;6284980;27;97067;-68
2022/12/08 05:59:21;;;;;;;;;11.40;11.00;;;;;8.28;46.83;98273.56;6282885;27;96569;-67
2022/12/08 06:02:24;;;;;;;;;11.00;9.00;;;;;8.33;46.72;98280.97;6296082;27;96356;-68
2022/12/08 06:05:28;;;;;;;;;13.75;12.00;;;;;8.35;46.56;98282.41;6288905;27;96254;-69
2022/12/08 06:08:32;;;;;;;;;13.60;13.40;;;;;8.37;46.69;98293.72;6289355;27;96315;-67
2022/12/08 06:11:38;;;;;;;;;10.00;10.00;;;;;8.35;46.36;98286.97;6294478;27;96234;-67
2022/12/08 06:14:42;;;;;;;;;9.75;8.75;;;;;8.33;46.46;98297.09;6279907;27;97339;-67
2022/12/08 06:17:45;;;;;;;;;13.40;13.40;;;;;8.19;46.12;98291.81;6284515;27;96501;-66
2022/12/08 06:20:48;;;;;;;;;12.40;12.40;;;;;8.28;46.24;98308.47;6269316;27;96643;-67
2022/12/08 06:23:53;;;;;;;;;12.40;12.00;;;;;8.26;46.30;98299.78;6285881;27;98335;-67
2022/12/08 06:26:58;;;;;;;;;13.00;13.00;;;;;8.28;46.22;98300.41;6285616;27;96420;-67
2022/12/08 06:30:02;;;;;;;;;19.00;17.60;;;;;8.35;46.47;98306.59;6281654;27;96536;-68
2022/12/08 06:33:06;;;;;;;;;11.00;11.00;;;;;8.35;46.46;98301.22;6269404;27;96596;-68
2022/12/08 06:36:11;;;;;;;;;16.00;15.00;;;;;8.39;46.12;98306.94;6288783;27;96351;-68
2022/12/08 06:39:14;;;;;;;;;13.00;13.00;;;;;8.45;46.16;98306.91;6285295;27;96282;-68
2022/12/08 06:45:41;;;;;;;;;13.00;13.00;;;;;8.57;45.95;98321.22;6282143;27;99142;-68
2022/12/08 06:48:45;;;;;;;;;14.40;14.40;;;;;8.59;46.04;98321.00;6286442;27;96334;-68
2022/12/08 06:51:48;;;;;;;;;10.80;10.00;;;;;8.60;45.87;98336.88;6286668;27;96380;-68
2022/12/08 06:54:52;;;;;;;;;12.40;11.40;;;;;8.60;45.70;98326.13;6288534;27;96520;-68
2022/12/08 06:57:56;;;;;;;;;10.40;10.00;;;;;8.68;45.67;98320.50;6285201;27;96642;-68
2022/12/08 07:01:05;;;;;;;;;15.40;15.00;;;;;8.74;45.76;98316.09;6281314;27;96634;-68
2022/12/08 07:04:08;;;;;;;;;21.20;20.20;;;;;8.79;45.71;98318.94;6280537;27;96366;-68
2022/12/08 07:07:11;;;;;;;;;13.00;13.00;;;;;8.86;45.46;98332.28;6287885;27;97670;-68
2022/12/08 07:10:15;;;;;;;;;19.00;16.80;;;;;8.93;45.45;98338.41;6287136;27;96211;-69
2022/12/08 07:13:20;;;;;;;;;12.50;11.50;;;;;9.00;45.21;98336.44;6286363;27;96431;-68
2022/12/08 07:16:24;;;;;;;;;13.20;12.20;;;;;9.09;44.99;98335.91;6283568;27;98378;-67
2022/12/08 07:19:27;;;;;;;;;16.60;15.00;;;;;9.13;44.89;98333.63;6289031;27;96621;-67
2022/12/08 07:22:31;;;;;;;;;12.40;12.40;;;;;9.24;44.65;98338.22;6285825;27;96795;-66
2022/12/08 07:25:34;;;;;;;;;11.00;10.00;;;;;9.33;44.53;98344.13;6294008;27;96486;-67
2022/12/08 07:28:41;;;;;;;;;15.00;14.60;;;;;9.35;44.36;98315.94;6283319;27;97031;-67
2022/12/08 07:31:44;;;;;;;;;14.00;13.00;;;;;9.58;43.99;98334.84;6285316;27;97107;-67
2022/12/08 07:34:47;;;;;;;;;19.00;17.00;;;;;9.67;43.59;98339.94;6292496;27;96279;-68
2022/12/08 07:37:51;;;;;;;;;18.00;17.50;;;;;9.73;43.35;98330.91;6294081;27;96625;-67
2022/12/08 07:40:54;;;;;;;;;19.00;17.00;;;;;9.74;43.14;98332.56;6293369;27;98272;-67
2022/12/08 07:43:59;;;;;;;;;13.60;13.60;;;;;9.81;43.08;98336.81;6295708;27;96443;-67
2022/12/08 07:47:02;;;;;;;;;11.25;11.00;;;;;9.84;42.87;98333.66;6287128;27;96232;-68
2022/12/08 07:50:07;;;;;;;;;11.00;10.80;;;;;9.78;42.74;98357.97;6272845;27;96534;-68
2022/12/08 07:53:11;;;;;;;;;11.50;10.50;;;;;9.68;42.59;98371.97;6277971;27;96726;-68
2022/12/08 07:56:15;;;;;;;;;12.25;11.75;;;;;9.74;42.93;98335.25;6286472;27;96499;-68
2022/12/08 07:59:21;;;;;;;;;12.00;12.00;;;;;9.81;42.68;98341.38;6285449;27;96468;-68
2022/12/08 08:02:24;;;;;;;;;13.00;12.00;;;;;9.92;42.71;98341.41;6286690;27;96394;-68
2022/12/08 08:05:28;;;;;;;;;9.60;9.00;;;;;9.97;42.55;98352.28;6292341;27;97238;-69
2022/12/08 08:08:32;;;;;;;;;9.20;8.20;;;;;10.33;41.99;98348.66;6288256;27;96333;-67
2022/12/08 08:11:35;;;;;;;;;11.00;10.00;;;;;10.65;41.40;98345.63;6289964;27;96242;-68
2022/12/08 08:14:40;;;;;;;;;9.00;8.00;;;;;10.88;40.74;98339.38;6283470;27;96388;-68
2022/12/08 08:17:44;;;;;;;;;16.60;14.60;;;;;11.21;40.01;98348.44;6280915;27;96391;-69
2022/12/08 08:20:47;;;;;;;;;11.40;10.40;;;;;11.36;40.17;98342.53;6286080;27;96343;-68
2022/12/08 08:23:51;;;;;;;;;9.75;8.75;;;;;11.50;39.35;98340.38;6292373;27;96385;-68
2022/12/08 08:26:55;;;;;;;;;9.50;9.50;;;;;11.70;39.04;98343.47;6290406;27;96532;-68
2022/12/08 08:29:59;;;;;;;;;9.50;9.50;;;;;11.81;38.56;98337.22;6290652;27;96840;-68
2022/12/08 08:33:03;;;;;;;;;10.00;9.00;;;;;11.99;38.30;98342.41;6270698;27;96898;-68
2022/12/08 08:36:08;;;;;;;;;10.00;9.60;;;;;12.05;38.55;98341.44;6289230;27;97139;-69
2022/12/08 08:39:11;;;;;;;;;7.75;6.75;;;;;12.01;38.30;98348.38;6289962;27;96925;-68
2022/12/08 08:42:15;;;;;;;;;13.00;10.60;;;;;11.99;38.37;98342.41;6290636;27;96351;-68
2022/12/08 08:45:20;;;;;;;;;12.00;11.00;;;;;11.95;38.06;98346.66;6289131;27;96512;-68
2022/12/08 08:48:23;;;;;;;;;10.00;9.60;;;;;12.05;38.35;98346.00;6290766;27;96492;-67
2022/12/08 08:51:27;;;;;;;;;7.00;6.00;;;;;12.08;37.96;98348.22;6290703;27;96298;-69
2022/12/08 08:54:30;;;;;;;;;7.80;7.00;;;;;12.11;37.96;98329.66;6290333;27;96381;-68
2022/12/08 08:57:34;;;;;;;;;13.80;11.80;;;;;12.13;38.11;98343.72;6289967;27;96990;-68
2022/12/08 09:00:38;;;;;;;;;11.00;10.60;;;;;12.08;38.39;98340.94;6289254;27;96174;-68
2022/12/08 09:03:42;;;;;;;;;10.60;9.20;;;;;12.20;37.60;98338.16;6289470;27;96461;-69
2022/12/08 09:06:45;;;;;;;;;10.00;10.00;;;;;12.07;37.99;98323.06;6289726;27;96488;-69
2022/12/08 09:09:48;;;;;;;;;11.40;9.80;;;;;12.02;38.44;98330.28;6289903;27;97538;-69
2022/12/08 09:12:52;;;;;;;;;12.00;10.00;;;;;11.83;38.26;98326.97;6306060;27;96450;-69
2022/12/08 09:15:57;;;;;;;;;9.00;9.00;;;;;11.74;38.61;98323.03;6290278;27;96415;-68
2022/12/08 09:19:01;;;;;;;;;11.40;11.00;;;;;11.75;38.79;98318.47;6289740;27;96502;-68
2022/12/08 09:22:05;;;;;;;;;9.00;8.00;;;;;11.70;38.63;98319.16;6280762;27;96297;-68
2022/12/08 09:25:09;;;;;;;;;11.75;10.75;;;;;11.71;39.15;98313.53;6290177;27;96423;-68
2022/12/08 09:28:13;;;;;;;;;12.20;12.20;;;;;11.73;39.29;98297.91;6289869;27;96282;-68
2022/12/08 09:31:20;;;;;;;;;11.00;10.60;;;;;11.86;38.80;98304.06;6289693;27;96403;-68
2022/12/08 09:34:24;;;;;;;;;16.00;14.00;;;;;11.85;38.92;98305.13;6285335;27;98054;-68
2022/12/08 09:37:28;;;;;;;;;20.60;19.60;;;;;11.76;38.87;98303.91;6288943;27;96884;-69
2022/12/08 09:40:40;;;;;;;;;19.50;18.00;;;;;11.74;39.14;98296.03;6289290;27;96410;-69
2022/12/08 09:44:00;;;;;;;;;18.00;16.00;;;;;11.63;39.00;98305.78;6289653;27;96286;-68
2022/12/08 09:47:16;;;;;;;;;21.80;21.80;;;;;11.43;39.29;98302.75;6287488;27;96947;-68
2022/12/08 09:50:29;;;;;;;;;20.00;19.50;;;;;11.29;39.92;98294.09;6285645;27;96803;-68
2022/12/08 09:53:36;;;;;;;;;24.00;22.00;;;;;11.12;40.26;98285.13;6285890;27;96980;-69
2022/12/08 09:56:40;;;;;;;;;19.80;18.80;;;;;11.06;40.44;98290.66;6289413;27;96536;-68
2022/12/08 09:59:48;;;;;;;;;24.00;21.00;;;;;11.02;40.84;98287.63;6290964;27;96419;-68
2022/12/08 10:02:55;;;;;;;;;26.40;25.80;;;;;10.95;40.83;98283.41;6295894;27;97049;-66
2022/12/08 10:06:07;;;;;;;;;16.00;14.00;;;;;11.00;40.92;98281.63;6289015;27;96993;-68
2022/12/08 10:09:23;;;;;;;;;14.00;13.00;;;;;10.93;40.93;98274.75;6289063;27;96434;-68
2022/12/08 10:12:35;;;;;;;;;18.00;18.00;;;;;10.78;40.81;98276.09;6286351;27;98343;-68
2022/12/08 10:15:44;;;;;;;;;14.00;12.60;;;;;10.79;41.28;98277.72;6288245;27;96361;-68
2022/12/08 10:18:57;;;;;;;;;22.00;21.00;;;;;10.70;41.33;98275.63;6288337;27;96491;-69
2022/12/08 10:22:05;;;;;;;;;17.40;17.40;;;;;10.48;41.89;98266.50;6284629;27;96621;-68
2022/12/08 10:25:17;;;;;;;;;21.00;20.00;;;;;10.49;42.00;98273.56;6282020;27;96338;-68
2022/12/08 10:28:21;;;;;;;;;21.00;20.80;;;;;10.40;41.99;98267.72;6283036;27;96462;-67
2022/12/08 10:31:26;;;;;;;;;19.40;19.40;;;;;10.15;42.32;98267.91;6294277;27;96834;-68
2022/12/08 10:34:31;;;;;;;;;14.00;13.00;;;;;10.13;42.32;98270.00;6287738;27;97739;-68
2022/12/08 10:37:35;;;;;;;;;19.00;16.25;;;;;10.19;42.28;98269.13;6284669;27;96677;-68
2022/12/08 10:40:40;;;;;;;;;20.60;18.40;;;;;10.11;42.23;98269.44;6286919;27;96214;-68
2022/12/08 10:43:50;;;;;;;;;21.60;20.60;;;;;10.18;42.45;98259.38;6284942;27;97076;-67
2022/12/08 10:46:54;;;;;;;;;17.00;16.00;;;;;10.19;42.61;98266.41;6288074;27;96963;-68
2022/12/08 10:50:17;;;;;;;;;21.00;19.00;;;;;10.23;42.35;98264.88;6304109;27;96462;-67
2022/12/08 10:53:24;;;;;;;;;19.50;19.00;;;;;10.21;42.30;98258.94;6288516;27;96331;-69
2022/12/08 10:56:29;;;;;;;;;22.80;20.00;;;;;10.24;42.92;98255.75;6288280;27;96301;-67
2022/12/08 10:59:34;;;;;;;;;22.33;20.67;;;;;10.29;42.33;98253.19;6288126;27;96418;-68
2022/12/08 11:02:49;;;;;;;;;19.80;17.20;;;;;10.18;41.76;98253.16;6288184;27;96754;-68
2022/12/08 11:05:59;;;;;;;;;17.40;15.60;;;;;10.22;42.25;98241.69;6288003;27;96141;-68
2022/12/08 11:09:24;;;;;;;;;19.00;18.00;;;;;10.10;42.70;98251.63;6304688;27;96863;-69
2022/12/08 11:12:31;;;;;;;;;21.00;19.60;;;;;10.14;42.74;98243.91;6287343;27;96771;-68
2022/12/08 11:15:38;;;;;;;;;20.60;20.00;;;;;10.15;42.92;98251.75;6286734;27;97508;-68
2022/12/08 11:18:45;;;;;;;;;21.50;20.50;;;;;10.16;42.87;98226.50;6287061;27;96342;-68
2022/12/08 11:21:50;;;;;;;;;12.40;12.40;;;;;10.23;42.51;98243.34;6287082;27;96941;-67
2022/12/08 11:24:59;;;;;;;;;16.80;16.00;;;;;10.29;43.08;98238.88;6286317;27;96476;-67
2022/12/08 11:28:03;;;;;;;;;21.40;21.00;;;;;10.46;42.74;98241.69;6287432;27;96285;-68
2022/12/08 11:31:21;;;;;;;;;20.20;19.20;;;;;10.53;42.60;98242.38;6287574;27;96614;-68
2022/12/08 11:34:32;;;;;;;;;16.00;15.00;;;;;10.62;42.36;98241.75;6287254;27;96361;-68
2022/12/08 11:37:40;;;;;;;;;23.00;22.50;;;;;10.59;42.31;98231.47;6286972;27;96385;-68
2022/12/08 11:40:44;;;;;;;;;19.00;19.00;;;;;10.75;42.29;98233.41;6287122;27;96570;-68
2022/12/08 11:43:55;;;;;;;;;17.40;15.40;;;;;10.85;42.09;98235.47;6290897;27;96668;-67
2022/12/08 11:47:06;;;;;;;;;12.75;11.75;;;;;10.83;41.93;98232.22;6287668;27;96320;-68
2022/12/08 11:50:20;;;;;;;;;13.00;12.20;;;;;10.88;41.82;98237.72;6285871;27;97188;-68
2022/12/08 11:53:31;;;;;;;;;15.00;14.00;;;;;10.88;41.67;98237.72;6269427;27;96627;-68
2022/12/08 11:56:39;;;;;;;;;17.00;16.00;;;;;10.96;41.81;98233.81;6287970;27;96404;-68
2022/12/08 11:59:45;;;;;;;;;15.00;13.00;;;;;10.99;41.90;98238.75;6289980;27;99108;-68
2022/12/08 12:02:58;;;;;;;;;13.80;13.00;;;;;11.08;41.30;98234.59;6290349;27;96342;-68
2022/12/08 12:06:38;;;;;;;;;17.60;16.20;;;;;10.99;41.26;98214.47;6288038;27;96359;-68
2022/12/08 12:10:39;;;;;;;;;15.00;13.00;;;;;11.10;41.57;98233.28;6288121;27;97348;-68
2022/12/08 12:14:00;;;;;;;;;14.80;14.20;;;;;11.18;41.71;98232.09;6278284;27;96295;-68
2022/12/08 12:17:05;;;;;;;;;16.25;15.25;;;;;11.19;41.64;98231.84;6289412;27;96209;-68
2022/12/08 12:20:18;;;;;;;;;16.40;16.40;;;;;11.22;41.68;98225.97;6289410;27;97289;-68
2022/12/08 12:23:28;;;;;;;;;20.00;18.00;;;;;11.26;41.22;98235.22;6289684;27;96237;-68
2022/12/08 12:26:36;;;;;;;;;13.00;11.40;;;;;11.25;41.46;98235.47;6293384;27;96350;-69
2022/12/08 12:29:46;;;;;;;;;21.00;19.00;;;;;11.25;41.54;98233.59;6304156;27;96854;-68
2022/12/08 12:33:00;;;;;;;;;22.40;22.00;;;;;11.25;41.01;98236.28;6286904;27;97325;-68
2022/12/08 12:36:07;;;;;;;;;24.00;23.40;;;;;11.18;41.34;98224.00;6289061;27;96550;-68
2022/12/08 12:39:14;;;;;;;;;24.80;22.40;;;;;11.14;41.63;98225.56;6286499;27;96627;-68
2022/12/08 12:42:41;;;;;;;;;19.40;19.20;;;;;11.14;42.08;98220.94;6288334;27;97231;-68
2022/12/08 12:45:45;;;;;;;;;26.75;25.50;;;;;11.07;42.10;98220.28;6286813;27;96653;-68
2022/12/08 12:48:49;;;;;;;;;21.00;19.20;;;;;11.07;41.56;98214.91;6287403;27;97050;-68
2022/12/08 12:51:54;;;;;;;;;26.00;24.20;;;;;11.06;41.85;98210.56;6289056;27;97259;-68
2022/12/08 12:55:44;;;;;;;;;24.00;23.00;;;;;11.10;41.93;98205.50;6285373;27;96570;-68
2022/12/08 12:58:54;;;;;;;;;19.60;19.00;;;;;11.09;42.25;98201.97;6282598;27;97544;-68
2022/12/08 13:01:57;;;;;;;;;20.60;20.60;;;;;11.12;42.83;98204.22;6295080;27;96459;-68
2022/12/08 13:05:08;;;;;;;;;25.40;23.00;;;;;11.14;43.44;98207.47;6289952;27;96607;-68
2022/12/08 13:08:21;;;;;;;;;19.50;18.50;;;;;11.16;43.85;98199.97;6283156;27;96993;-68
2022/12/08 13:11:26;;;;;;;;;20.00;20.00;;;;;11.15;43.79;98203.72;6281729;27;97344;-69
2022/12/08 13:14:35;;;;;;;;;16.60;16.60;;;;;11.15;44.52;98201.00;6301113;27;96315;-67
2022/12/08 13:17:45;;;;;;;;;21.75;20.75;;;;;11.11;44.66;98202.56;6287175;27;96518;-67
2022/12/08 13:20:52;;;;;;;;;19.00;18.50;;;;;11.11;44.61;98204.44;6283302;27;96298;-66
2022/12/08 13:24:24;;;;;;;;;21.00;20.00;;;;;11.07;44.18;98198.72;6291845;27;96510;-67
2022/12/08 13:27:33;;;;;;;;;17.00;16.00;;;;;11.04;44.25;98201.91;6289297;27;96429;-67
2022/12/08 13:30:46;;;;;;;;;21.00;20.20;;;;;11.04;44.38;98201.09;6288645;27;97795;-66
2022/12/08 13:33:49;;;;;;;;;22.00;20.00;;;;;11.03;44.60;98202.97;6296781;27;96623;-67
2022/12/08 13:37:03;;;;;;;;;19.75;18.00;;;;;10.99;44.30;98198.28;6294814;27;97076;-67
2022/12/08 13:40:14;;;;;;;;;20.50;19.50;;;;;10.99;44.57;98201.00;6296053;27;96597;-69
2022/12/08 13:43:25;;;;;;;;;23.00;21.00;;;;;10.97;45.04;98195.00;6298274;27;96643;-69
2022/12/08 13:46:41;;;;;;;;;23.00;22.40;;;;;10.93;45.23;98183.06;6290952;27;96508;-69
2022/12/08 13:50:13;;;;;;;;;20.80;20.40;;;;;10.95;45.02;98178.22;6291837;27;96682;-69
2022/12/08 13:53:40;;;;;;;;;23.60;22.60;;;;;10.94;44.73;98185.53;6291526;27;96987;-69
2022/12/08 13:57:07;;;;;;;;;18.40;16.80;;;;;10.90;45.30;98187.06;6286966;27;96232;-69
2022/12/08 14:00:17;;;;;;;;;24.60;24.00;;;;;10.90;45.50;98192.44;6293621;27;96852;-69
2022/12/08 14:03:21;;;;;;;;;22.00;21.20;;;;;10.89;45.94;98188.13;6287352;27;96437;-69
2022/12/08 14:06:30;;;;;;;;;25.60;23.60;;;;;10.88;45.44;98188.38;6288454;27;97107;-69
2022/12/08 14:09:36;;;;;;;;;24.80;24.00;;;;;10.85;45.76;98189.66;6288674;27;96579;-68
2022/12/08 14:12:45;;;;;;;;;20.60;18.40;;;;;10.85;46.03;98200.44;6280477;27;96907;-68
2022/12/08 14:15:48;;;;;;;;;18.00;17.00;;;;;10.73;46.21;98175.41;6286000;27;97167;-67
2022/12/08 14:18:53;;;;;;;;;16.00;16.00;;;;;10.83;46.89;98197.16;6285716;27;96927;-68
2022/12/08 14:21:59;;;;;;;;;16.00;13.00;;;;;10.78;47.09;98197.91;6284151;27;96802;-67
2022/12/08 14:25:05;;;;;;;;;19.75;17.75;;;;;10.80;47.37;98203.03;6286724;27;96781;-68
2022/12/08 14:28:11;;;;;;;;;23.80;22.20;;;;;10.78;47.12;98206.00;6287109;27;96564;-68
2022/12/08 14:31:17;;;;;;;;;15.60;14.40;;;;;10.74;48.03;98198.63;6287857;27;96875;-68
2022/12/08 14:34:21;;;;;;;;;16.75;15.75;;;;;10.72;48.86;98195.31;6288006;27;96553;-69
2022/12/08 14:37:27;;;;;;;;;14.00;13.20;;;;;10.66;48.89;98194.41;6277716;27;96345;-69
2022/12/08 14:40:34;;;;;;;;;16.00;15.80;;;;;10.66;48.25;98196.28;6299793;27;96460;-69